Weather History for KUNU - October, 2013

Change the Weather History Date:

Wednesday, October 9, 2013

  Actual Average Record
Temperature  
Mean Temperature 60 °F -  
Max Temperature 71 °F 61 °F 80 °F (2010)
Min Temperature 49 °F 42 °F 28 °F (1972)
Degree Days  
Heating Degree Days 5    
Growing Degree Days 10 (Base 50)    
Moisture  
Dew Point 43 °F    
Average Humidity 59    
Maximum Humidity 80    
Minimum Humidity 28    
Precipitation  
Precipitation 0.03 in - - ()
Sea Level Pressure  
Sea Level Pressure 30.19 in    
Wind  
Wind Speed 8 mph (SSE)    
Max Wind Speed 13 mph    
Max Gust Speed 17 mph    
Visibility 10 miles    
Events      
Averages and records for this station are not official NWS values.
T = Trace of Precipitation, MM = Missing Value Source: NWS Daily Summary

Daily Weather History Graph

Daily Weather History Graph

Search for Another Location

Airport or City:

Trip Planner

Search our weather history database for the weather conditions in past years. The results will help you decide how hot, cold, wet, or windy it might be!

Date:

Astronomy

Oct. 09, 2013 Rise Set
Actual Time 7:01 AM CDT 6:21 PM CDT
Civil Twilight 6:33 AM CDT 6:49 PM CDT
Nautical Twilight 6:00 AM CDT 7:22 PM CDT
Astronomical Twilight 5:26 AM CDT 7:56 PM CDT
Moon 12:04 PM CDT (10/9) 9:48 PM CDT (10/9)
Length of Visible Light 12h 16m
Length of Day
11h 19m
Waxing Crescent, 25% of the Moon is Illuminated
Oct 9
Waxing Crescent
Oct 11
First Quarter
Oct 18
Full
Oct 26
Last Quarter
Nov 3
New

Hourly Weather History & Observations

Time (CDT) Temp. Dew Point Humidity Pressure Visibility Wind Dir Wind Speed Gust Speed Precip Events Conditions
12:15 AM 54.9 °F 44.8 °F 69% 30.14 in 10.0 mi SSE 9.2 mph - N/A   Clear
12:35 AM 55.0 °F 44.6 °F 68% 30.14 in 10.0 mi SSE 6.9 mph - N/A   Clear
12:55 AM 54.5 °F 44.6 °F 69% 30.14 in 10.0 mi SSE 6.9 mph - N/A   Clear
1:15 AM 55.4 °F 43.9 °F 65% 30.15 in 10.0 mi SSE 9.2 mph - N/A   Clear
1:35 AM 56.8 °F 43.0 °F 60% 30.15 in 10.0 mi SSE 11.5 mph - N/A   Clear
1:55 AM 56.3 °F 43.2 °F 61% 30.15 in 10.0 mi SSE 9.2 mph - N/A   Clear
2:15 AM 54.9 °F 43.3 °F 65% 30.15 in 10.0 mi SSE 8.1 mph - N/A   Clear
2:35 AM 54.5 °F 43.3 °F 66% 30.16 in 10.0 mi SSE 6.9 mph - N/A   Clear
2:55 AM 53.8 °F 43.2 °F 67% 30.16 in 10.0 mi South 5.8 mph - N/A   Clear
3:15 AM 53.1 °F 43.0 °F 69% 30.16 in 10.0 mi South 5.8 mph - N/A   Clear
3:35 AM 52.3 °F 43.3 °F 71% 30.17 in 10.0 mi SSE 5.8 mph - N/A   Clear
3:55 AM 52.0 °F 43.3 °F 72% 30.17 in 10.0 mi SSE 4.6 mph - N/A   Clear
4:15 AM 51.1 °F 43.9 °F 76% 30.18 in 10.0 mi SSE 4.6 mph - N/A   Clear
4:35 AM 50.7 °F 43.9 °F 77% 30.19 in 10.0 mi SSE 6.9 mph - N/A   Clear
4:55 AM 51.3 °F 44.1 °F 76% 30.19 in 10.0 mi SSE 8.1 mph - N/A   Clear
5:15 AM 51.3 °F 44.1 °F 76% 30.19 in 10.0 mi SSE 6.9 mph - N/A   Clear
5:35 AM 50.9 °F 44.1 °F 77% 30.20 in 10.0 mi SSE 6.9 mph - N/A   Clear
5:55 AM 50.9 °F 44.2 °F 78% 30.20 in 10.0 mi SSE 6.9 mph - N/A   Clear
6:15 AM 50.5 °F 44.1 °F 78% 30.21 in 10.0 mi SSE 6.9 mph - N/A   Clear
6:35 AM 50.2 °F 44.1 °F 79% 30.21 in 10.0 mi SSE 6.9 mph - N/A   Clear
6:55 AM 50.0 °F 44.1 °F 80% 30.22 in 10.0 mi SSE 5.8 mph - N/A   Clear
7:15 AM 50.5 °F 44.6 °F 80% 30.22 in 10.0 mi SSE 6.9 mph - N/A   Clear
7:35 AM 51.3 °F 44.8 °F 78% 30.22 in 10.0 mi South 5.8 mph - N/A   Clear
7:55 AM 52.9 °F 45.0 °F 74% 30.22 in 10.0 mi South 6.9 mph - N/A   Clear
8:15 AM 54.5 °F 45.0 °F 70% 30.23 in 10.0 mi South 8.1 mph - N/A   Clear
8:35 AM 56.3 °F 45.1 °F 66% 30.23 in 10.0 mi South 8.1 mph - N/A   Clear
8:55 AM 57.2 °F 45.5 °F 65% 30.23 in 10.0 mi South 9.2 mph - N/A   Clear
9:15 AM 59.0 °F 45.5 °F 61% 30.23 in 10.0 mi South 8.1 mph - N/A   Clear
9:35 AM 60.8 °F 45.9 °F 58% 30.23 in 10.0 mi South 10.4 mph - N/A   Clear
9:55 AM 61.9 °F 45.9 °F 56% 30.23 in 10.0 mi South 10.4 mph - N/A   Clear
10:15 AM 63.1 °F 46.6 °F 55% 30.24 in 10.0 mi South 9.2 mph - N/A   Clear
10:35 AM 63.9 °F 45.5 °F 51% 30.23 in 10.0 mi South 8.1 mph - N/A   Clear
10:55 AM 65.1 °F 46.2 °F 50% 30.23 in 10.0 mi South 9.2 mph - N/A   Clear
11:15 AM 65.7 °F 44.8 °F 47% 30.23 in 10.0 mi South 8.1 mph 17.3 mph N/A   Clear
11:35 AM 66.4 °F 44.6 °F 45% 30.23 in 10.0 mi South 10.4 mph - N/A   Clear
12:15 PM 67.5 °F 43.2 °F 41% 30.22 in 10.0 mi South 10.4 mph - 0.03 in   Clear
12:35 PM 68.4 °F 43.3 °F 40% 30.22 in 10.0 mi South 10.4 mph - 0.03 in   Clear
12:55 PM 68.7 °F 41.5 °F 37% 30.21 in 10.0 mi South 9.2 mph - 0.03 in   Clear
1:15 PM 68.4 °F 41.2 °F 37% 30.20 in 10.0 mi South 10.4 mph - N/A   Clear
1:35 PM 69.1 °F 40.8 °F 36% 30.20 in 10.0 mi South 12.7 mph - N/A   Clear
1:55 PM 69.8 °F 40.8 °F 35% 30.19 in 10.0 mi SE 9.2 mph - N/A   Clear
2:15 PM 70.0 °F 39.0 °F 32% 30.19 in 10.0 mi SSE 9.2 mph 16.1 mph N/A   Clear
2:35 PM 70.2 °F 38.5 °F 31% 30.19 in 10.0 mi South 8.1 mph - N/A   Clear
2:55 PM 71.1 °F 37.0 °F 29% 30.18 in 10.0 mi South 10.4 mph - N/A   Clear
3:15 PM 70.7 °F 36.0 °F 28% 30.17 in 10.0 mi SE 8.1 mph - N/A   Clear
3:55 PM 70.9 °F 36.5 °F 28% 30.16 in 10.0 mi ESE 9.2 mph - N/A   Clear
4:15 PM 70.5 °F 36.1 °F 28% 30.16 in 10.0 mi SE 10.4 mph - N/A   Clear
4:35 PM 69.8 °F 36.1 °F 29% 30.16 in 10.0 mi SE 8.1 mph - N/A   Clear
4:55 PM 68.4 °F 35.8 °F 30% 30.15 in 10.0 mi SE 8.1 mph - N/A   Clear
5:15 PM 68.0 °F 37.9 °F 33% 30.15 in 10.0 mi SE 6.9 mph - N/A   Clear
5:35 PM 66.2 °F 40.5 °F 39% 30.15 in 10.0 mi ESE 5.8 mph - N/A   Clear
5:55 PM 64.9 °F 39.9 °F 40% 30.15 in 10.0 mi ESE 4.6 mph - N/A   Clear
6:15 PM 63.1 °F 41.4 °F 45% 30.15 in 10.0 mi ESE 4.6 mph - N/A   Clear
6:55 PM 59.0 °F 41.4 °F 52% 30.16 in 10.0 mi East 8.1 mph - N/A   Clear
7:15 PM 56.5 °F 42.8 °F 60% 30.16 in 10.0 mi East 9.2 mph - N/A   Clear
7:35 PM 55.8 °F 42.3 °F 60% 30.17 in 10.0 mi East 8.1 mph - N/A   Clear
7:55 PM 55.4 °F 42.8 °F 63% 30.17 in 10.0 mi ESE 8.1 mph - N/A   Clear
8:15 PM 55.0 °F 43.2 °F 64% 30.18 in 10.0 mi ESE 6.9 mph - N/A   Clear
8:35 PM 53.6 °F 43.9 °F 70% 30.17 in 10.0 mi ESE 6.9 mph - N/A   Clear
8:55 PM 52.0 °F 44.2 °F 75% 30.17 in 10.0 mi ESE 8.1 mph - N/A   Clear
9:15 PM 53.4 °F 44.1 °F 71% 30.17 in 10.0 mi SE 9.2 mph - N/A   Clear
9:35 PM 53.2 °F 43.7 °F 70% 30.17 in 10.0 mi SE 9.2 mph - N/A   Clear
9:55 PM 52.3 °F 43.7 °F 72% 30.18 in 10.0 mi SE 8.1 mph - N/A   Clear
10:15 PM 52.0 °F 43.5 °F 73% 30.18 in 10.0 mi SE 6.9 mph - N/A   Clear
10:35 PM 50.2 °F 43.7 °F 78% 30.18 in 10.0 mi ESE 5.8 mph - N/A   Clear
10:55 PM 49.8 °F 43.7 °F 79% 30.17 in 10.0 mi ESE 6.9 mph - N/A   Clear
11:15 PM 50.2 °F 43.5 °F 78% 30.17 in 10.0 mi ESE 5.8 mph - N/A   Clear
11:55 PM 50.4 °F 43.7 °F 78% 30.18 in 10.0 mi Calm Calm - N/A   Clear